METAR Data
IDs: Format: Raw Decoded Include TAF

Data at: 0501 UTC 26 Sep 2018

K33V 260435Z AUTO 29004KT 10SM CLR 04/M10 A3035 RMK AO1
K33V 260415Z AUTO 28003KT 10SM CLR 04/M10 A3035 RMK AO1
K33V 260355Z AUTO 00000KT 10SM CLR 05/M12 A3036 RMK AO1
K33V 260335Z AUTO 07004KT 10SM CLR 06/M12 A3036 RMK AO1
K33V 260315Z AUTO 10005KT 10SM CLR 05/M10 A3036 RMK AO1
K33V 260255Z AUTO 01006KT 10SM CLR 04/M10 A3036 RMK AO1
K33V 260235Z AUTO 02006KT 10SM CLR 05/M11 A3036 RMK AO1
K33V 260215Z AUTO 02006KT 10SM CLR 05/M11 A3035 RMK AO1
K33V 260155Z AUTO 02008KT 10SM CLR 05/M10 A3035 RMK AO1
K33V 260135Z AUTO 01008KT 10SM CLR 06/M11 A3034 RMK AO1
K33V 260115Z AUTO 01006KT 10SM CLR 06/M11 A3034 RMK AO1
K33V 260055Z AUTO 36006KT 10SM CLR 09/M10 A3034 RMK AO1
K33V 260035Z AUTO 35007KT 10SM CLR 10/M10 A3033 RMK AO1
K33V 260015Z AUTO 34009KT 10SM CLR 11/M11 A3033 RMK AO1
K33V 252355Z AUTO 34014KT 10SM CLR 12/M11 A3032 RMK AO1
K33V 252335Z AUTO 34013G17KT 10SM CLR 12/M12 A3031 RMK AO1
K33V 252315Z AUTO 33011KT 10SM CLR 12/M13 A3031 RMK AO1
K33V 252255Z AUTO 34015G19KT 10SM CLR 14/M12 A3030 RMK AO1
K33V 252235Z AUTO 36010G17KT 10SM CLR 14/M11 A3030 RMK AO1
K33V 252215Z AUTO 00000KT 10SM CLR 13/M11 A3030 RMK AO1
K33V 252155Z AUTO 34008KT 330V030 10SM CLR 14/M10 A3029 RMK AO1
K33V 252135Z AUTO 36008KT 10SM CLR 13/M10 A3029 RMK AO1
K33V 252115Z AUTO 31003KT 10SM CLR 14/M12 A3029 RMK AO1
K33V 252055Z AUTO 34007KT 10SM CLR 14/M12 A3029 RMK AO1
K33V 252035Z AUTO 31006KT 10SM CLR 14/M13 A3029 RMK AO1
K33V 252015Z AUTO 18006G14KT 10SM CLR 12/M10 A3030 RMK AO1
K33V 251955Z AUTO 24003KT 10SM CLR 12/M10 A3031 RMK AO1
K33V 251935Z AUTO 29006G15KT 260V320 10SM CLR 12/M09 A3032 RMK AO1
K33V 251915Z AUTO 25006KT 10SM CLR 11/M08 A3032 RMK AO1
K33V 251855Z AUTO 20007KT 10SM CLR 10/M09 A3033 RMK AO1
K33V 251835Z AUTO 23007KT 10SM CLR 10/M09 A3033 RMK AO1
K33V 251815Z AUTO 24003KT 10SM CLR 10/M08 A3034 RMK AO1
K33V 251755Z AUTO 16003KT 10SM CLR 09/M08 A3034 RMK AO1
K33V 251735Z AUTO 24003KT 10SM CLR 08/M08 A3035 RMK AO1
K33V 251715Z AUTO 21004KT 10SM CLR 07/M08 A3035 RMK AO1
K33V 251655Z AUTO 00000KT 10SM CLR 06/M06 A3035 RMK AO1
K33V 251635Z AUTO 14004KT 10SM CLR 05/M04 A3035 RMK AO1
K33V 251615Z AUTO 17003KT 10SM CLR 05/M02 A3036 RMK AO1
K33V 251555Z AUTO 00000KT 10SM CLR 04/M02 A3036 RMK AO1
K33V 251535Z AUTO 14003KT 10SM SCT009 03/M02 A3036 RMK AO1
K33V 251515Z AUTO 00000KT 10SM BKN007 02/M01 A3036 RMK AO1
K33V 251455Z AUTO 00000KT 10SM SCT007 01/M02 A3036 RMK AO1
K33V 251435Z AUTO 00000KT 10SM SCT007 01/M01 A3036 RMK AO1
K33V 251415Z AUTO 00000KT 10SM SCT016 M00/M02 A3035 RMK AO1
K33V 251355Z AUTO 00000KT 10SM SCT009 BKN016 01/M01 A3035 RMK AO1
K33V 251335Z AUTO 05003KT 10SM BKN007 M00/M02 A3035 RMK AO1
K33V 251315Z AUTO 07004KT 10SM SCT007 M01/M03 A3034 RMK AO1
K33V 251255Z AUTO 11003KT 10SM BKN007 OVC011 M00/M02 A3033 RMK AO1
K33V 251235Z AUTO 09003KT 10SM BKN009 M00/M02 A3033 RMK AO1
K33V 251215Z AUTO 00000KT 10SM OVC009 00/M02 A3033 RMK AO1
K33V 251155Z AUTO 07003KT 10SM BKN009 M01/M03 A3033 RMK AO1
K33V 251135Z AUTO 12003KT 10SM SCT009 SCT013 M03/M04 A3032 RMK AO1
K33V 251115Z AUTO 15004KT 10SM CLR M01/M03 A3032 RMK AO1
K33V 251055Z AUTO 15003KT 10SM CLR M01/M03 A3031 RMK AO1
K33V 251035Z AUTO 00000KT 10SM CLR M01/M03 A3030 RMK AO1
K33V 251015Z AUTO 18005KT 10SM SCT012 M00/M02 A3030 RMK AO1
K33V 250955Z AUTO 35006KT 10SM SCT008 SCT012 00/M02 A3029 RMK AO1
K33V 250935Z AUTO 04004KT 10SM BKN008 BKN012 01/M01 A3028 RMK AO1
K33V 250915Z AUTO 03003KT 10SM SCT005 SCT010 00/M02 A3028 RMK AO1
K33V 250855Z AUTO 20005KT 10SM CLR 00/M02 A3027 RMK AO1
K33V 250835Z AUTO 02007KT 10SM CLR 01/M01 A3027 RMK AO1
K33V 250815Z AUTO 35010KT 10SM CLR 01/M01 A3027 RMK AO1
K33V 250755Z AUTO 33012G16KT 10SM CLR 01/M02 A3025 RMK AO1
K33V 250735Z AUTO 35017G22KT 10SM CLR 01/M02 A3025 RMK AO1
K33V 250715Z AUTO 36017G22KT 10SM CLR 01/M02 A3023 RMK AO1
K33V 250655Z AUTO 01006KT 10SM CLR 03/M13 A3023 RMK AO1
K33V 250635Z AUTO 04004KT 10SM CLR 06/M14 A3022 RMK AO1
K33V 250615Z AUTO 00000KT 10SM CLR 05/M13 A3021 RMK AO1
K33V 250555Z AUTO 00000KT 10SM CLR 05/M12 A3021 RMK AO1
K33V 250535Z AUTO 00000KT 10SM CLR 06/M13 A3020 RMK AO1
K33V 250515Z AUTO 00000KT 10SM SCT110 06/M11 A3020 RMK AO1
K33V 250455Z AUTO 34004KT 10SM BKN110 07/M10 A3019 RMK AO1
K33V 250435Z AUTO 34008KT 10SM OVC110 08/M09 A3018 RMK AO1
K33V 250415Z AUTO 34009G15KT 10SM OVC100 09/M08 A3017 RMK AO1
K33V 250355Z AUTO 34007KT 10SM OVC100 09/M07 A3015 RMK AO1
K33V 250335Z AUTO 34007KT 10SM OVC100 10/M06 A3014 RMK AO1
K33V 250315Z AUTO 35007KT 10SM BKN100 OVC110 10/M05 A3013 RMK AO1
K33V 250255Z AUTO 35006KT 10SM BKN100 OVC110 10/M04 A3013 RMK AO1
K33V 250235Z AUTO 00000KT 10SM BKN100 BKN120 11/M04 A3011 RMK AO1
K33V 250215Z AUTO 00000KT 10SM BKN100 BKN120 11/M04 A3011 RMK AO1
K33V 250155Z AUTO 00000KT 10SM BKN110 12/M04 A3009 RMK AO1
K33V 250135Z AUTO 35003KT 10SM SCT110 11/M05 A3009 RMK AO1
K33V 250115Z AUTO 32006KT 10SM BKN110 12/M05 A3008 RMK AO1
K33V 250055Z AUTO 27010G16KT 10SM SCT110 14/M06 A3007 RMK AO1
K33V 250035Z AUTO 28010G17KT 10SM SCT110 15/M06 A3007 RMK AO1
K33V 250015Z AUTO 26013G21KT 10SM SCT110 16/M07 A3006 RMK AO1
K33V 242355Z AUTO 30012G21KT 10SM SCT100 16/M06 A3006 RMK AO1
K33V 242335Z AUTO 27017G22KT 10SM CLR 17/M08 A3006 RMK AO1
K33V 242315Z AUTO 27015G26KT 10SM SCT110 17/M08 A3006 RMK AO1
K33V 242255Z AUTO 25024G29KT 10SM SCT110 18/M07 A3006 RMK AO1
K33V 242235Z AUTO 26022G28KT 10SM CLR 17/M06 A3006 RMK AO1
K33V 242215Z AUTO 25020G33KT 10SM SCT110 18/M07 A3006 RMK AO1
K33V 242155Z AUTO 26022G32KT 10SM SCT110 18/M07 A3006 RMK AO1
K33V 242135Z AUTO 26025G32KT 10SM SCT100 17/M06 A3006 RMK AO1
K33V 242115Z AUTO 26015G22KT 10SM SCT090 17/M04 A3006 RMK AO1
K33V 242055Z AUTO 24019G24KT 10SM BKN090 BKN120 19/M03 A3006 RMK AO1
K33V 242035Z AUTO 25021G29KT 10SM SCT090 SCT120 18/M04 A3007 RMK AO1
K33V 242015Z AUTO 26019G26KT 10SM SCT080 17/M04 A3008 RMK AO1
K33V 241955Z AUTO 26022G27KT 10SM SCT080 17/M03 A3009 RMK AO1
K33V 241935Z AUTO 27019G26KT 10SM SCT080 17/M02 A3009 RMK AO1
K33V 241915Z AUTO 25017G27KT 10SM CLR 17/M02 A3009 RMK AO1
K33V 241855Z AUTO 25018G23KT 10SM SCT055 17/M02 A3010 RMK AO1
K33V 241835Z AUTO 24015G21KT 10SM SCT060 SCT065 16/00 A3011 RMK AO1
K33V 241815Z AUTO 23013G16KT 10SM SCT050 16/02 A3012 RMK AO1
K33V 241755Z AUTO 23011G16KT 10SM SCT048 SCT060 SCT070 14/01 A3013 RMK AO1
K33V 241735Z AUTO 23012G21KT 10SM SCT048 SCT060 BKN070 15/03 A3013 RMK AO1
K33V 241715Z AUTO 21009G16KT 10SM SCT039 BKN048 BKN060 14/03 A3013 RMK AO1